Ada, Ohio
Current Conditions -  °F | °C
As of 4:53 AM on Monday 22 Dec 2014 (Local Time) from KAOH Reporting Station
Haze Haze  
Wind Chill: -8°   Ceiling: Unl
Heat Index: -3°   Visibility: 5mi
Dew Point: -6°   Wind: 9mph
Humidity: 78%   Direction: 120°ESE
Pressure: 30.05"   Gusts: NA
Location:  40.78°N, 83.82°W
Report Text: KAOH 220953Z AUTO 12008KT 5SM HZ CLR M03/M06 A3005 RMK AO2 SLP185 T10281061
Loading
Personal Weather Stations






























Interactive Weather Map New forecast layout! Learn more

10-Day Weather Forecast

Advertisements
Track Severe Weather on mobile